createdAt,value
2019-05-01T00:01:05.305Z,10.27
2019-05-01T00:03:47.621Z,10.40
2019-05-01T00:06:17.839Z,10.56
2019-05-01T00:08:46.422Z,10.85
2019-05-01T00:11:15.055Z,11.19
2019-05-01T00:13:43.575Z,11.28
2019-05-01T00:16:12.358Z,11.37
2019-05-01T00:18:40.816Z,11.07
2019-05-01T00:21:09.368Z,10.97
2019-05-01T00:23:37.823Z,11.08
2019-05-01T00:26:06.455Z,11.08
2019-05-01T00:28:35.005Z,10.66
2019-05-01T00:31:03.674Z,10.00
2019-05-01T00:33:32.204Z,9.60
2019-05-01T00:36:00.844Z,9.90
2019-05-01T00:38:29.456Z,10.14
2019-05-01T00:40:58.019Z,10.33
2019-05-01T00:43:26.601Z,10.47
2019-05-01T00:45:56.060Z,10.65
2019-05-01T00:48:24.622Z,10.80
2019-05-01T00:50:53.176Z,10.92
2019-05-01T00:53:21.816Z,10.92
2019-05-01T00:55:52.045Z,10.83
2019-05-01T00:58:25.436Z,10.80
2019-05-01T01:01:08.001Z,10.39
2019-05-01T01:03:36.857Z,9.92
2019-05-01T01:06:06.028Z,9.94
2019-05-01T01:08:34.992Z,9.96
2019-05-01T01:11:03.815Z,9.89
2019-05-01T01:13:32.443Z,9.92
2019-05-01T01:16:01.179Z,10.02
2019-05-01T01:18:29.689Z,10.15
2019-05-01T01:20:58.251Z,10.33
2019-05-01T01:23:27.144Z,10.45
2019-05-01T01:25:56.550Z,10.42
2019-05-01T01:28:25.271Z,10.46
2019-05-01T01:30:56.699Z,10.42
2019-05-01T01:33:24.236Z,10.53
2019-05-01T01:35:52.839Z,10.53
2019-05-01T01:38:21.544Z,10.41
2019-05-01T01:40:50.254Z,10.43
2019-05-01T01:43:29.636Z,10.30
2019-05-01T01:46:00.022Z,10.43
2019-05-01T01:48:28.926Z,10.43
2019-05-01T01:50:57.717Z,10.37
2019-05-01T01:53:26.875Z,10.28
2019-05-01T01:55:55.693Z,10.25
2019-05-01T01:58:25.122Z,10.32
2019-05-01T02:01:09.251Z,10.40
2019-05-01T02:03:36.289Z,10.35
2019-05-01T02:06:04.990Z,10.35
2019-05-01T02:08:33.603Z,10.41
2019-05-01T02:11:02.369Z,10.42
2019-05-01T02:13:32.291Z,10.47
2019-05-01T02:16:00.806Z,10.43
2019-05-01T02:18:29.555Z,10.14
2019-05-01T02:20:58.237Z,9.70
2019-05-01T02:23:27.074Z,9.61
2019-05-01T02:25:56.024Z,9.62
2019-05-01T02:28:32.642Z,9.76
2019-05-01T02:31:27.700Z,9.93
2019-05-01T02:33:46.725Z,10.12
2019-05-01T02:36:16.646Z,10.25
2019-05-01T02:38:47.181Z,10.36
2019-05-01T02:41:17.311Z,10.35
2019-05-01T02:43:48.813Z,10.37
2019-05-01T02:46:19.522Z,10.39
2019-05-01T02:48:53.552Z,10.31
2019-05-01T02:51:23.473Z,10.13
2019-05-01T02:53:53.145Z,9.95
2019-05-01T02:56:26.863Z,9.70
2019-05-01T02:58:57.742Z,9.68
2019-05-01T03:01:44.654Z,9.70
2019-05-01T03:03:59.061Z,9.79
2019-05-01T03:06:30.194Z,10.03
2019-05-01T03:09:00.696Z,10.25
2019-05-01T03:11:30.610Z,10.32
2019-05-01T03:14:01.872Z,10.11
2019-05-01T03:16:33.351Z,10.04
2019-05-01T03:19:21.177Z,10.06
2019-05-01T03:21:51.795Z,10.27
2019-05-01T03:24:22.363Z,10.17
2019-05-01T03:26:51.337Z,10.26
2019-05-01T03:29:20.959Z,10.25
2019-05-01T03:32:14.467Z,10.25
2019-05-01T03:34:20.343Z,9.85
2019-05-01T03:36:49.041Z,9.64
2019-05-01T03:39:18.043Z,9.89
2019-05-01T03:41:47.507Z,10.10
2019-05-01T03:44:17.640Z,10.31
2019-05-01T03:46:46.690Z,10.42
2019-05-01T03:49:15.499Z,10.45
2019-05-01T03:51:44.591Z,10.46
2019-05-01T03:54:13.740Z,10.48
2019-05-01T03:56:42.807Z,10.64
2019-05-01T03:59:11.855Z,10.41
2019-05-01T04:01:45.189Z,10.28
2019-05-01T04:04:15.820Z,10.11
2019-05-01T04:06:44.649Z,9.77
2019-05-01T04:09:13.337Z,9.46
2019-05-01T04:11:41.972Z,9.42
2019-05-01T04:14:10.786Z,9.42
2019-05-01T04:16:41.669Z,9.36
2019-05-01T04:19:11.067Z,9.59
2019-05-01T04:21:41.716Z,9.61
2019-05-01T04:24:10.329Z,9.93
2019-05-01T04:26:38.930Z,10.01
2019-05-01T04:29:09.224Z,9.97
2019-05-01T04:31:39.426Z,10.13
2019-05-01T04:34:10.876Z,9.93
2019-05-01T04:36:41.239Z,9.82
2019-05-01T04:39:09.815Z,9.92
2019-05-01T04:41:38.443Z,9.96
2019-05-01T04:44:07.137Z,10.05
2019-05-01T04:46:36.369Z,10.07
2019-05-01T04:49:06.029Z,10.11
2019-05-01T04:51:35.354Z,10.18
2019-05-01T04:54:04.242Z,10.18
2019-05-01T04:56:33.283Z,10.17
2019-05-01T04:59:02.120Z,10.13
2019-05-01T05:01:32.358Z,10.11
2019-05-01T05:04:00.963Z,10.27
2019-05-01T05:06:29.586Z,10.38
2019-05-01T05:08:58.811Z,10.45
2019-05-01T05:11:29.092Z,10.44
2019-05-01T05:14:12.453Z,10.40
2019-05-01T05:16:59.384Z,10.16
2019-05-01T05:19:28.863Z,10.10
2019-05-01T05:21:57.457Z,10.05
2019-05-01T05:24:26.281Z,10.00
2019-05-01T05:26:55.167Z,10.15
2019-05-01T05:29:24.659Z,10.40
2019-05-01T05:31:54.280Z,10.51
2019-05-01T05:34:25.818Z,10.60
2019-05-01T05:36:57.663Z,10.53
2019-05-01T05:39:29.122Z,10.48
2019-05-01T05:41:58.112Z,10.56
2019-05-01T05:44:26.987Z,10.57
2019-05-01T05:46:55.586Z,10.42
2019-05-01T05:49:24.370Z,10.36
2019-05-01T05:52:02.718Z,10.31
2019-05-01T05:54:50.697Z,10.26
2019-05-01T05:57:34.117Z,10.32
2019-05-01T06:00:21.197Z,10.27
2019-05-01T06:03:10.578Z,10.31
2019-05-01T06:05:44.119Z,10.43
2019-05-01T06:08:25.770Z,10.57
2019-05-01T06:11:00.186Z,10.65
2019-05-01T06:13:47.521Z,10.68
2019-05-01T06:16:31.409Z,10.68
2019-05-01T06:19:04.474Z,10.75
2019-05-01T06:21:35.860Z,10.56
2019-05-01T06:24:07.025Z,10.56
2019-05-01T06:26:39.407Z,10.60
2019-05-01T06:29:06.792Z,10.56
2019-05-01T06:31:36.519Z,10.59
2019-05-01T06:34:05.218Z,10.59
2019-05-01T06:36:34.548Z,10.50
2019-05-01T06:39:06.835Z,10.57
2019-05-01T06:41:42.663Z,10.68
2019-05-01T06:44:20.923Z,10.77
2019-05-01T06:46:51.955Z,10.78
2019-05-01T06:49:37.610Z,10.79
2019-05-01T06:52:08.356Z,10.90
2019-05-01T06:54:37.078Z,11.00
2019-05-01T06:57:06.874Z,10.91
2019-05-01T06:59:37.634Z,10.83
2019-05-01T07:02:07.316Z,10.63
2019-05-01T07:04:37.752Z,10.54
2019-05-01T07:07:09.830Z,10.54
2019-05-01T07:09:38.210Z,10.58
2019-05-01T07:12:09.032Z,10.72
2019-05-01T07:14:37.623Z,10.80
2019-05-01T07:17:08.937Z,10.95
2019-05-01T07:19:55.309Z,10.98
2019-05-01T07:22:24.083Z,11.17
2019-05-01T07:24:53.228Z,11.17
2019-05-01T07:27:23.756Z,11.16
2019-05-01T07:29:53.854Z,11.35
2019-05-01T07:32:22.899Z,11.33
2019-05-01T07:34:51.603Z,11.10
2019-05-01T07:37:20.898Z,10.88
2019-05-01T07:39:51.807Z,10.73
2019-05-01T07:42:28.083Z,10.71
2019-05-01T07:45:03.799Z,10.85
2019-05-01T07:47:39.726Z,10.94
2019-05-01T07:50:14.078Z,11.06
2019-05-01T07:52:42.784Z,11.11
2019-05-01T07:55:13.125Z,11.03
2019-05-01T07:57:44.525Z,11.21
2019-05-01T08:00:15.221Z,11.39
2019-05-01T08:02:43.912Z,11.45
2019-05-01T08:05:12.539Z,11.61
2019-05-01T08:07:41.153Z,11.68
2019-05-01T08:10:10.115Z,11.36
2019-05-01T08:12:38.761Z,11.17
2019-05-01T08:15:07.571Z,11.15
2019-05-01T08:17:37.785Z,11.16
2019-05-01T08:20:14.473Z,11.29
2019-05-01T08:22:40.084Z,11.35
2019-05-01T08:25:09.483Z,11.33
2019-05-01T08:27:50.965Z,11.43
2019-05-01T08:30:36.879Z,11.58
2019-05-01T08:33:09.883Z,11.72
2019-05-01T08:35:37.664Z,11.85
2019-05-01T08:38:06.303Z,11.90
2019-05-01T08:40:37.198Z,12.03
2019-05-01T08:43:05.290Z,12.12
2019-05-01T08:45:40.766Z,11.89
2019-05-01T08:48:10.558Z,11.78
2019-05-01T08:50:39.214Z,11.63
2019-05-01T08:53:07.854Z,11.75
2019-05-01T08:55:39.971Z,11.79
2019-05-01T08:58:08.859Z,11.61
2019-05-01T09:00:41.056Z,11.54
2019-05-01T09:03:08.797Z,11.68
2019-05-01T09:05:37.635Z,11.78
2019-05-01T09:08:06.359Z,12.02
2019-05-01T09:10:34.969Z,11.85
2019-05-01T09:13:03.647Z,11.91
2019-05-01T09:15:32.354Z,12.12
2019-05-01T09:18:01.585Z,12.33
2019-05-01T09:20:31.725Z,12.32
2019-05-01T09:23:00.419Z,12.33
2019-05-01T09:25:30.858Z,12.46
2019-05-01T09:28:04.155Z,12.30
2019-05-01T09:30:38.513Z,12.34
2019-05-01T09:33:07.178Z,12.49
2019-05-01T09:35:40.302Z,12.54
2019-05-01T09:38:06.085Z,12.71
2019-05-01T09:40:34.686Z,12.63
2019-05-01T09:43:03.378Z,12.54
2019-05-01T09:45:32.087Z,12.67
2019-05-01T09:48:01.848Z,12.86
2019-05-01T09:50:32.114Z,13.00
2019-05-01T09:53:05.088Z,13.19
2019-05-01T09:55:47.412Z,13.14
2019-05-01T09:58:15.968Z,13.03
2019-05-01T10:00:48.863Z,12.80
2019-05-01T10:03:16.875Z,12.87
2019-05-01T10:05:45.388Z,12.91
2019-05-01T10:08:13.919Z,13.06
2019-05-01T10:10:42.677Z,13.16
2019-05-01T10:13:11.270Z,13.24
2019-05-01T10:15:39.963Z,13.30
2019-05-01T10:18:09.390Z,13.49
2019-05-01T10:20:37.967Z,13.42
2019-05-01T10:23:07.866Z,13.20
2019-05-01T10:25:42.891Z,13.43
2019-05-01T10:28:12.893Z,13.52
2019-05-01T10:30:58.849Z,13.24
2019-05-01T10:33:32.678Z,13.19
2019-05-01T10:36:04.015Z,13.28
2019-05-01T10:38:32.705Z,13.08
2019-05-01T10:41:04.200Z,13.22
2019-05-01T10:43:32.569Z,13.36
2019-05-01T10:46:01.308Z,13.30
2019-05-01T10:48:29.979Z,13.35
2019-05-01T10:50:58.534Z,13.36
2019-05-01T10:53:27.143Z,13.69
2019-05-01T10:55:55.822Z,13.92
2019-05-01T10:58:24.532Z,14.00
2019-05-01T11:00:54.779Z,14.11
2019-05-01T11:03:23.394Z,14.24
2019-05-01T11:05:56.152Z,14.15
2019-05-01T11:08:22.444Z,14.30
2019-05-01T11:10:51.039Z,14.13
2019-05-01T11:13:19.704Z,14.13
2019-05-01T11:15:48.334Z,14.08
2019-05-01T11:18:17.930Z,14.05
2019-05-01T11:20:46.575Z,14.07
2019-05-01T11:23:15.232Z,13.99
2019-05-01T11:25:44.695Z,14.23
2019-05-01T11:28:13.453Z,14.44
2019-05-01T11:30:42.079Z,14.60
2019-05-01T11:33:23.829Z,14.74
2019-05-01T11:36:09.667Z,14.96
2019-05-01T11:38:39.578Z,14.98
2019-05-01T11:41:12.570Z,14.38
2019-05-01T11:43:41.070Z,14.08
2019-05-01T11:46:09.783Z,13.87
2019-05-01T11:48:38.310Z,14.10
2019-05-01T11:51:06.949Z,14.40
2019-05-01T11:53:35.588Z,14.56
2019-05-01T11:56:04.184Z,14.82
2019-05-01T11:58:33.047Z,14.67
2019-05-01T12:01:02.885Z,14.52
2019-05-01T12:03:31.532Z,14.56
2019-05-01T12:06:00.139Z,14.59
2019-05-01T12:08:28.787Z,14.84
2019-05-01T12:10:57.758Z,15.02
2019-05-01T12:13:26.364Z,14.73
2019-05-01T12:15:56.655Z,14.70
2019-05-01T12:18:25.353Z,14.91
2019-05-01T12:20:53.836Z,15.30
2019-05-01T12:23:22.491Z,15.57
2019-05-01T12:25:51.049Z,15.40
2019-05-01T12:28:19.584Z,15.44
2019-05-01T12:30:48.112Z,15.60
2019-05-01T12:33:16.686Z,15.80
2019-05-01T12:35:46.988Z,16.04
2019-05-01T12:38:15.397Z,15.79
2019-05-01T12:40:45.614Z,15.45
2019-05-01T12:43:14.159Z,15.28
2019-05-01T12:45:44.368Z,15.40
2019-05-01T12:48:13.057Z,15.78
2019-05-01T12:50:41.762Z,15.77
2019-05-01T12:53:15.104Z,15.77
2019-05-01T12:55:54.484Z,15.73
2019-05-01T12:58:23.102Z,16.01
2019-05-01T13:00:55.364Z,16.17
2019-05-01T13:03:23.987Z,16.37
2019-05-01T13:05:52.598Z,16.65
2019-05-01T13:08:21.217Z,16.60
2019-05-01T13:10:50.767Z,16.40
2019-05-01T13:13:19.359Z,16.56
2019-05-01T13:15:47.984Z,16.58
2019-05-01T13:18:16.545Z,16.61
2019-05-01T13:20:45.158Z,16.85
2019-05-01T13:23:13.782Z,17.03
2019-05-01T13:25:43.199Z,17.02
2019-05-01T13:28:29.524Z,16.89
2019-05-01T13:31:05.587Z,16.98
2019-05-01T13:33:34.252Z,17.12
2019-05-01T13:36:02.898Z,17.09
2019-05-01T13:38:31.516Z,17.02
2019-05-01T13:44:32.253Z,16.61
2019-05-01T13:47:00.889Z,16.63
2019-05-01T13:49:29.587Z,16.82
2019-05-01T13:55:30.310Z,17.19
2019-05-01T13:57:58.949Z,17.19
2019-05-01T14:00:27.585Z,17.25
2019-05-01T14:02:56.306Z,16.91
2019-05-01T14:05:25.168Z,16.97
2019-05-01T14:07:53.755Z,16.90
2019-05-01T14:10:22.557Z,16.95
2019-05-01T14:12:51.176Z,17.47
2019-05-01T14:15:19.876Z,18.02
2019-05-01T14:17:48.402Z,17.88
2019-05-01T14:20:33.703Z,17.74
2019-05-01T14:23:04.656Z,17.47
2019-05-01T14:25:50.763Z,17.09
2019-05-01T14:28:19.333Z,16.34
2019-05-01T14:30:47.966Z,16.21
2019-05-01T14:33:16.597Z,16.10
2019-05-01T14:35:45.243Z,16.04
2019-05-01T14:38:13.883Z,16.15
2019-05-01T14:40:42.395Z,16.43
2019-05-01T14:43:11.011Z,16.78
2019-05-01T14:45:39.627Z,17.22
2019-05-01T14:48:08.320Z,17.22
2019-05-01T14:50:36.959Z,17.64
2019-05-01T14:53:05.598Z,18.00
2019-05-01T14:55:34.268Z,18.09
2019-05-01T14:58:03.362Z,17.90
2019-05-01T15:00:32.050Z,17.70
2019-05-01T15:03:00.646Z,17.72
2019-05-01T15:05:29.216Z,17.68
2019-05-01T15:07:58.278Z,17.78
2019-05-01T15:10:26.817Z,17.82
2019-05-01T15:12:59.626Z,17.68
2019-05-01T15:15:29.857Z,17.53
2019-05-01T15:18:00.041Z,17.42
2019-05-01T15:20:28.718Z,17.11
2019-05-01T15:22:57.346Z,17.39
2019-05-01T15:25:25.908Z,17.88
2019-05-01T15:27:54.612Z,17.99
2019-05-01T15:30:23.210Z,18.03
2019-05-01T15:32:51.819Z,18.03
2019-05-01T15:35:20.427Z,17.85
2019-05-01T15:37:56.608Z,18.15
2019-05-01T15:40:36.374Z,18.47
2019-05-01T15:43:24.605Z,18.54
2019-05-01T15:45:53.283Z,18.43
2019-05-01T15:48:21.821Z,18.65
2019-05-01T15:50:50.418Z,18.56
2019-05-01T15:53:19.224Z,18.75
2019-05-01T15:55:47.725Z,18.83
2019-05-01T15:58:16.365Z,19.10
2019-05-01T16:00:45.029Z,19.09
2019-05-01T16:03:13.657Z,18.83
2019-05-01T16:05:42.237Z,18.89
2019-05-01T16:08:10.796Z,19.09
2019-05-01T16:10:57.602Z,19.15
2019-05-01T16:13:26.307Z,19.01
2019-05-01T16:15:55.404Z,19.03
2019-05-01T16:18:24.152Z,18.25
2019-05-01T16:20:52.674Z,17.78
2019-05-01T16:23:21.408Z,17.86
2019-05-01T16:25:49.937Z,18.35
2019-05-01T16:28:18.525Z,18.03
2019-05-01T16:30:47.227Z,17.91
2019-05-01T16:33:15.706Z,17.91
2019-05-01T16:35:44.325Z,17.77
2019-05-01T16:38:23.126Z,17.85
2019-05-01T16:40:52.491Z,18.16
2019-05-01T16:43:21.146Z,18.18
2019-05-01T16:45:49.745Z,18.04
2019-05-01T16:48:18.581Z,18.01
2019-05-01T16:50:47.185Z,18.03
2019-05-01T16:53:15.814Z,17.88
2019-05-01T16:55:44.682Z,17.88
2019-05-01T16:58:14.683Z,17.90
2019-05-01T17:00:46.454Z,17.91
2019-05-01T17:03:19.734Z,17.78
2019-05-01T17:05:49.892Z,17.87
2019-05-01T17:08:20.057Z,17.84
2019-05-01T17:10:52.482Z,17.84
2019-05-01T17:13:21.564Z,17.93
2019-05-01T17:15:51.587Z,17.93
2019-05-01T17:18:20.597Z,17.89
2019-05-01T17:20:49.267Z,17.93
2019-05-01T17:23:17.996Z,17.79
2019-05-01T17:25:46.698Z,17.64
2019-05-01T17:28:15.272Z,17.40
2019-05-01T17:30:47.883Z,17.45
2019-05-01T17:33:20.978Z,17.46
2019-05-01T17:35:47.097Z,17.39
2019-05-01T17:38:15.734Z,17.29
2019-05-01T17:40:47.387Z,17.18
2019-05-01T17:43:15.464Z,17.01
2019-05-01T17:45:44.063Z,17.01
2019-05-01T17:48:12.705Z,16.85
2019-05-01T17:50:41.312Z,16.56
2019-05-01T17:53:09.969Z,16.52
2019-05-01T17:55:38.630Z,16.52
2019-05-01T17:58:07.242Z,16.41
2019-05-01T18:00:40.228Z,16.33
2019-05-01T18:03:26.622Z,16.23
2019-05-01T18:06:01.290Z,16.27
2019-05-01T18:08:27.318Z,16.27
2019-05-01T18:10:55.944Z,16.17
2019-05-01T18:13:24.591Z,16.04
2019-05-01T18:15:53.147Z,15.87
2019-05-01T18:18:21.860Z,15.74
2019-05-01T18:20:50.481Z,15.63
2019-05-01T18:23:37.241Z,15.52
2019-05-01T18:26:19.393Z,15.39
2019-05-01T18:29:06.906Z,15.26
2019-05-01T18:31:35.731Z,15.18
2019-05-01T18:34:04.634Z,15.07
2019-05-01T18:36:37.835Z,15.02
2019-05-01T18:39:16.884Z,15.01
2019-05-01T18:41:41.955Z,14.94
2019-05-01T18:44:11.428Z,14.97
2019-05-01T18:46:40.191Z,14.90
2019-05-01T18:49:08.743Z,14.73
2019-05-01T18:51:40.643Z,14.44
2019-05-01T18:54:07.792Z,14.53
2019-05-01T18:56:38.271Z,14.57
2019-05-01T18:59:06.690Z,14.49
2019-05-01T19:01:35.918Z,14.36
2019-05-01T19:04:04.856Z,14.29
2019-05-01T19:06:41.120Z,14.11
2019-05-01T19:09:14.791Z,14.09
2019-05-01T19:11:36.631Z,14.11
2019-05-01T19:14:06.386Z,13.92
2019-05-01T19:16:39.984Z,13.81
2019-05-01T19:19:06.631Z,13.82
2019-05-01T19:21:41.789Z,13.82
2019-05-01T19:24:08.685Z,13.76
2019-05-01T19:26:38.207Z,13.80
2019-05-01T19:29:07.705Z,13.77
2019-05-01T19:31:36.316Z,13.73
2019-05-01T19:34:05.296Z,13.68
2019-05-01T19:36:33.893Z,13.53
2019-05-01T19:39:06.822Z,13.47
2019-05-01T19:41:33.143Z,13.45
2019-05-01T19:44:01.754Z,13.28
2019-05-01T19:46:30.393Z,13.30
2019-05-01T19:48:58.967Z,13.14
2019-05-01T19:51:27.617Z,13.17
2019-05-01T19:53:56.273Z,13.10
2019-05-01T19:56:24.921Z,13.04
2019-05-01T19:58:53.536Z,13.02
2019-05-01T20:01:22.165Z,12.92
2019-05-01T20:03:50.852Z,12.87
2019-05-01T20:06:19.492Z,12.82
2019-05-01T20:08:48.066Z,12.76
2019-05-01T20:11:16.743Z,12.86
2019-05-01T20:13:45.405Z,12.93
2019-05-01T20:16:14.815Z,12.99
2019-05-01T20:18:43.455Z,12.97
2019-05-01T20:21:12.175Z,12.85
2019-05-01T20:23:40.818Z,12.83
2019-05-01T20:26:09.504Z,12.92
2019-05-01T20:28:38.024Z,12.91
2019-05-01T20:31:07.480Z,12.86
2019-05-01T20:33:39.071Z,12.78
2019-05-01T20:36:07.341Z,12.68
2019-05-01T20:38:35.952Z,12.63
2019-05-01T20:41:04.575Z,12.56
2019-05-01T20:43:33.656Z,12.61
2019-05-01T20:46:02.383Z,12.61
2019-05-01T20:48:31.004Z,12.62
2019-05-01T20:50:59.501Z,12.74
2019-05-01T20:53:28.041Z,12.77
2019-05-01T20:56:01.085Z,12.77
2019-05-01T20:58:29.797Z,12.76
2019-05-01T21:00:59.992Z,12.80
2019-05-01T21:03:28.659Z,12.75
2019-05-01T21:06:07.930Z,12.77
2019-05-01T21:08:48.607Z,12.82
2019-05-01T21:11:21.374Z,12.82
2019-05-01T21:13:50.078Z,12.79
2019-05-01T21:16:18.713Z,12.81
2019-05-01T21:18:47.434Z,12.82
2019-05-01T21:21:16.037Z,12.83
2019-05-01T21:23:48.049Z,12.81
2019-05-01T21:26:14.999Z,12.87
2019-05-01T21:28:44.861Z,12.87
2019-05-01T21:31:13.841Z,12.78
2019-05-01T21:33:46.422Z,12.80
2019-05-01T21:36:12.862Z,12.72
2019-05-01T21:38:41.418Z,12.75
2019-05-01T21:41:09.989Z,12.66
2019-05-01T21:43:38.520Z,12.64
2019-05-01T21:46:08.121Z,12.72
2019-05-01T21:48:37.615Z,12.76
2019-05-01T21:51:07.456Z,12.79
2019-05-01T21:53:37.265Z,12.66
2019-05-01T21:56:07.706Z,12.49
2019-05-01T21:58:36.339Z,12.37
2019-05-01T22:01:06.803Z,12.23
2019-05-01T22:03:35.418Z,12.19
2019-05-01T22:06:04.321Z,12.09
2019-05-01T22:08:34.457Z,11.99
2019-05-01T22:11:03.888Z,11.89
2019-05-01T22:13:32.538Z,11.83
2019-05-01T22:16:02.688Z,11.80
2019-05-01T22:18:38.800Z,11.79
2019-05-01T22:21:09.654Z,11.87
2019-05-01T22:23:55.733Z,11.91
2019-05-01T22:26:25.198Z,11.73
2019-05-01T22:28:56.125Z,11.59
2019-05-01T22:31:29.484Z,11.45
2019-05-01T22:34:02.696Z,11.47
2019-05-01T22:36:31.287Z,11.35
2019-05-01T22:39:02.197Z,11.38
2019-05-01T22:41:30.252Z,11.39
2019-05-01T22:43:58.924Z,11.38
2019-05-01T22:46:29.287Z,11.35
2019-05-01T22:48:57.842Z,11.30
2019-05-01T22:51:26.464Z,11.46
2019-05-01T22:53:54.981Z,11.52
2019-05-01T22:56:23.764Z,11.54
2019-05-01T22:58:52.377Z,11.54
2019-05-01T23:01:21.439Z,11.29
2019-05-01T23:03:51.937Z,11.16
2019-05-01T23:06:20.733Z,11.06
2019-05-01T23:08:49.488Z,11.02
2019-05-01T23:11:20.361Z,11.02
2019-05-01T23:13:49.173Z,11.03
2019-05-01T23:16:19.442Z,10.90
2019-05-01T23:18:51.981Z,10.72
2019-05-01T23:21:18.399Z,10.62
2019-05-01T23:23:47.030Z,10.66
2019-05-01T23:26:16.721Z,10.78
2019-05-01T23:28:45.495Z,10.82
2019-05-01T23:31:14.490Z,11.01
2019-05-01T23:33:45.615Z,11.11
2019-05-01T23:36:23.256Z,10.93
2019-05-01T23:38:43.852Z,10.73
2019-05-01T23:41:12.450Z,10.68
2019-05-01T23:43:40.943Z,10.71
2019-05-01T23:46:09.544Z,10.75
2019-05-01T23:48:39.102Z,10.75
2019-05-01T23:51:07.609Z,10.54
2019-05-01T23:53:36.259Z,10.54
2019-05-01T23:56:04.942Z,10.43
2019-05-01T23:58:33.594Z,10.48
